createdAt,value
2022-10-08T00:00:47.596Z,100817.69
2022-10-08T00:03:18.161Z,100815.19
2022-10-08T00:05:56.257Z,100810.66
2022-10-08T00:08:24.307Z,100817.97
2022-10-08T00:10:55.796Z,100811.63
2022-10-08T00:13:24.855Z,100815.31
2022-10-08T00:15:53.433Z,100815.63
2022-10-08T00:18:22.643Z,100809.63
2022-10-08T00:20:50.270Z,100821.97
2022-10-08T00:23:17.923Z,100825.28
2022-10-08T00:25:45.995Z,100825.28
2022-10-08T00:28:14.664Z,100817.25
2022-10-08T00:30:42.781Z,100817.09
2022-10-08T00:33:12.257Z,100826.28
2022-10-08T00:35:41.775Z,100821.78
2022-10-08T00:38:09.331Z,100822.94
2022-10-08T00:40:42.818Z,100820.94
2022-10-08T00:43:15.532Z,100823.91
2022-10-08T00:45:44.289Z,100820.44
2022-10-08T00:48:15.023Z,100815.81
2022-10-08T00:50:43.974Z,100815.97
2022-10-08T00:53:11.823Z,100812.94
2022-10-08T00:55:43.932Z,100821.28
2022-10-08T00:58:16.477Z,100820.31
2022-10-08T01:00:44.523Z,100824.16
2022-10-08T01:03:12.164Z,100824.34
2022-10-08T01:05:51.122Z,100814.47
2022-10-08T01:08:29.574Z,100816.13
2022-10-08T01:11:05.001Z,100808.41
2022-10-08T01:13:42.163Z,100805.94
2022-10-08T01:16:24.936Z,100809.63
2022-10-08T01:18:58.976Z,100807.59
2022-10-08T01:21:41.063Z,100805.09
2022-10-08T01:24:47.360Z,100801.94
2022-10-08T01:27:26.123Z,100811.31
2022-10-08T01:29:55.910Z,100812.34
2022-10-08T01:32:28.175Z,100810.13
2022-10-08T01:35:00.100Z,100814.97
2022-10-08T01:37:33.164Z,100810.63
2022-10-08T01:40:06.320Z,100816.97
2022-10-08T01:42:39.923Z,100813.28
2022-10-08T01:45:13.368Z,100819.66
2022-10-08T01:47:44.226Z,100823.38
2022-10-08T01:50:17.090Z,100823.03
2022-10-08T01:52:49.384Z,100825.34
2022-10-08T01:55:22.047Z,100824.00
2022-10-08T01:57:52.357Z,100824.81
2022-10-08T02:00:20.667Z,100818.31
2022-10-08T02:02:48.592Z,100816.47
2022-10-08T02:05:16.533Z,100818.97
2022-10-08T02:07:44.493Z,100811.97
2022-10-08T02:10:14.371Z,100813.63
2022-10-08T02:12:43.036Z,100809.94
2022-10-08T02:15:15.203Z,100806.44
2022-10-08T02:17:53.268Z,100814.97
2022-10-08T02:20:26.884Z,100819.31
2022-10-08T02:23:00.268Z,100827.34
2022-10-08T02:25:34.453Z,100819.47
2022-10-08T02:28:09.408Z,100817.81
2022-10-08T02:30:44.250Z,100816.97
2022-10-08T02:33:15.887Z,100823.31
2022-10-08T02:35:48.530Z,100824.00
2022-10-08T02:38:22.225Z,100828.00
2022-10-08T02:40:53.847Z,100816.00
2022-10-08T02:43:24.992Z,100824.69
2022-10-08T02:45:58.978Z,100816.84
2022-10-08T02:48:31.221Z,100823.03
2022-10-08T02:51:03.129Z,100819.19
2022-10-08T02:53:32.126Z,100820.03
2022-10-08T02:56:09.430Z,100824.38
2022-10-08T02:58:37.453Z,100822.03
2022-10-08T03:01:13.670Z,100824.25
2022-10-08T03:03:47.189Z,100837.78
2022-10-08T03:06:16.884Z,100829.09
2022-10-08T03:08:49.099Z,100838.78
2022-10-08T03:11:17.406Z,100849.19
2022-10-08T03:13:49.257Z,100852.84
2022-10-08T03:16:23.055Z,100839.16
2022-10-08T03:18:52.121Z,100853.00
2022-10-08T03:21:20.198Z,100842.97
2022-10-08T03:23:48.062Z,100846.47
2022-10-08T03:26:18.026Z,100852.13
2022-10-08T03:28:45.975Z,100853.31
2022-10-08T03:31:13.891Z,100853.63
2022-10-08T03:33:42.796Z,100854.13
2022-10-08T03:36:10.578Z,100856.00
2022-10-08T03:38:38.201Z,100854.38
2022-10-08T03:41:05.839Z,100852.69
2022-10-08T03:43:34.539Z,100859.53
2022-10-08T03:46:02.904Z,100867.41
2022-10-08T03:48:30.751Z,100869.91
2022-10-08T03:51:01.570Z,100865.56
2022-10-08T03:53:32.845Z,100873.75
2022-10-08T03:56:01.734Z,100882.97
2022-10-08T03:58:29.415Z,100877.63
2022-10-08T04:00:58.728Z,100880.78
2022-10-08T04:03:27.359Z,100875.28
2022-10-08T04:05:55.179Z,100876.28
2022-10-08T04:08:24.423Z,100881.97
2022-10-08T04:10:52.313Z,100883.31
2022-10-08T04:13:20.625Z,100884.19
2022-10-08T04:15:50.730Z,100883.31
2022-10-08T04:18:19.170Z,100886.00
2022-10-08T04:20:46.853Z,100888.00
2022-10-08T04:23:14.509Z,100881.16
2022-10-08T04:25:51.871Z,100887.16
2022-10-08T04:28:20.346Z,100886.16
2022-10-08T04:30:56.394Z,100882.16
2022-10-08T04:33:24.348Z,100880.84
2022-10-08T04:35:56.191Z,100883.66
2022-10-08T04:38:26.954Z,100886.00
2022-10-08T04:41:04.650Z,100881.84
2022-10-08T04:43:32.318Z,100880.19
2022-10-08T04:46:00.009Z,100882.69
2022-10-08T04:48:27.826Z,100885.53
2022-10-08T04:50:56.788Z,100884.00
2022-10-08T04:53:25.623Z,100894.22
2022-10-08T04:55:53.735Z,100899.88
2022-10-08T04:58:24.521Z,100900.03
2022-10-08T05:00:52.533Z,100906.22
2022-10-08T05:03:20.145Z,100903.06
2022-10-08T05:05:47.799Z,100903.38
2022-10-08T05:08:15.415Z,100904.88
2022-10-08T05:10:49.397Z,100908.88
2022-10-08T05:13:17.154Z,100916.53
2022-10-08T05:15:46.220Z,100930.09
2022-10-08T05:18:13.908Z,100925.38
2022-10-08T05:20:41.642Z,100920.72
2022-10-08T05:23:09.351Z,100920.03
2022-10-08T05:25:37.173Z,100920.38
2022-10-08T05:28:05.412Z,100928.38
2022-10-08T05:30:33.248Z,100928.88
2022-10-08T05:33:02.316Z,100929.88
2022-10-08T05:35:29.892Z,100936.41
2022-10-08T05:37:58.104Z,100942.91
2022-10-08T05:40:25.739Z,100937.72
2022-10-08T05:42:53.910Z,100938.88
2022-10-08T05:45:21.490Z,100941.53
2022-10-08T05:47:49.284Z,100939.88
2022-10-08T05:50:18.367Z,100934.03
2022-10-08T05:52:46.185Z,100946.69
2022-10-08T05:55:13.960Z,100947.53
2022-10-08T05:57:41.569Z,100956.06
2022-10-08T06:00:10.518Z,100949.50
2022-10-08T06:02:38.242Z,100954.00
2022-10-08T06:05:06.623Z,100957.38
2022-10-08T06:07:35.621Z,100955.84
2022-10-08T06:10:03.304Z,100957.03
2022-10-08T06:12:30.866Z,100964.91
2022-10-08T06:14:58.451Z,100970.56
2022-10-08T06:17:26.078Z,100967.22
2022-10-08T06:19:53.636Z,100973.56
2022-10-08T06:22:21.186Z,100971.25
2022-10-08T06:24:50.116Z,100976.09
2022-10-08T06:27:17.749Z,100982.41
2022-10-08T06:29:45.386Z,100979.41
2022-10-08T06:32:12.998Z,100982.09
2022-10-08T06:34:42.002Z,100988.19
2022-10-08T06:37:09.623Z,100986.50
2022-10-08T06:39:37.294Z,100984.81
2022-10-08T06:42:06.385Z,100990.16
2022-10-08T06:44:33.968Z,100990.00
2022-10-08T06:47:01.665Z,100995.19
2022-10-08T06:49:29.393Z,100996.50
2022-10-08T06:51:57.060Z,100994.50
2022-10-08T06:54:26.178Z,100998.53
2022-10-08T06:56:55.644Z,101000.53
2022-10-08T06:59:24.629Z,101002.56
2022-10-08T07:01:52.247Z,101008.25
2022-10-08T07:04:19.867Z,101005.06
2022-10-08T07:06:47.458Z,101005.59
2022-10-08T07:09:15.130Z,101016.28
2022-10-08T07:11:42.696Z,101010.09
2022-10-08T07:14:10.390Z,101021.28
2022-10-08T07:16:39.393Z,101024.31
2022-10-08T07:19:07.017Z,101030.97
2022-10-08T07:21:34.608Z,101029.63
2022-10-08T07:24:02.547Z,101034.00
2022-10-08T07:26:33.125Z,101034.84
2022-10-08T07:29:02.681Z,101042.69
2022-10-08T07:31:32.409Z,101041.19
2022-10-08T07:34:03.363Z,101047.41
2022-10-08T07:36:32.191Z,101048.38
2022-10-08T07:39:01.484Z,101048.91
2022-10-08T07:41:30.337Z,101048.03
2022-10-08T07:43:59.984Z,101049.72
2022-10-08T07:46:27.767Z,101050.00
2022-10-08T07:48:59.012Z,101052.53
2022-10-08T07:51:29.163Z,101053.38
2022-10-08T07:54:01.569Z,101046.50
2022-10-08T07:56:30.919Z,101048.00
2022-10-08T07:58:59.480Z,101058.22
2022-10-08T08:01:29.502Z,101056.88
2022-10-08T08:03:59.303Z,101061.03
2022-10-08T08:06:28.551Z,101065.41
2022-10-08T08:08:56.770Z,101059.53
2022-10-08T08:11:25.538Z,101067.53
2022-10-08T08:13:53.870Z,101065.72
2022-10-08T08:16:25.249Z,101070.41
2022-10-08T08:18:54.984Z,101063.00
2022-10-08T08:21:28.878Z,101070.53
2022-10-08T08:23:58.220Z,101068.16
2022-10-08T08:26:28.223Z,101069.16
2022-10-08T08:28:58.011Z,101075.53
2022-10-08T08:31:28.837Z,101072.00
2022-10-08T08:33:58.024Z,101068.03
2022-10-08T08:36:29.826Z,101071.22
2022-10-08T08:38:57.936Z,101068.28
2022-10-08T08:41:39.050Z,101069.16
2022-10-08T08:44:13.127Z,101077.69
2022-10-08T08:46:46.818Z,101067.00
2022-10-08T08:49:21.074Z,101076.66
2022-10-08T08:51:50.037Z,101079.00
2022-10-08T08:54:17.672Z,101073.56
2022-10-08T08:56:45.553Z,101073.91
2022-10-08T08:59:25.224Z,101078.44
2022-10-08T09:01:57.291Z,101096.34
2022-10-08T09:04:34.422Z,101094.25
2022-10-08T09:07:06.877Z,101098.06
2022-10-08T09:09:39.222Z,101096.72
2022-10-08T09:12:20.468Z,101098.69
2022-10-08T09:14:53.013Z,101097.28
2022-10-08T09:17:24.334Z,101082.47
2022-10-08T09:19:52.116Z,101100.78
2022-10-08T09:52:17.520Z,101125.78
2022-10-08T09:54:48.873Z,101116.84
2022-10-08T10:22:00.251Z,101139.41
2022-10-08T10:24:37.492Z,101133.59
2022-10-08T10:27:10.725Z,101139.22
2022-10-08T10:29:59.508Z,101133.66
2022-10-08T10:32:32.291Z,101140.78
2022-10-08T10:35:07.277Z,101147.97
2022-10-08T10:37:44.852Z,101144.97
2022-10-08T10:40:25.020Z,101149.84
2022-10-08T10:43:01.902Z,101145.06
2022-10-08T10:45:35.090Z,101147.69
2022-10-08T10:48:03.664Z,101154.75
2022-10-08T10:50:41.495Z,101151.16
2022-10-08T10:53:20.129Z,101147.38
2022-10-08T10:55:57.159Z,101142.84
2022-10-08T10:58:41.826Z,101150.00
2022-10-08T11:01:24.113Z,101145.16
2022-10-08T11:04:01.968Z,101151.38
2022-10-08T11:06:45.992Z,101143.81
2022-10-08T11:09:24.030Z,101151.84
2022-10-08T11:11:55.850Z,101157.69
2022-10-08T11:14:49.626Z,101154.16
2022-10-08T11:17:31.010Z,101156.81
2022-10-08T11:20:13.150Z,101164.09
2022-10-08T11:22:48.591Z,101153.41
2022-10-08T11:25:29.215Z,101162.38
2022-10-08T11:28:10.242Z,101160.88
2022-10-08T11:30:48.653Z,101162.03
2022-10-08T11:33:18.021Z,101162.59
2022-10-08T11:35:54.743Z,101159.91
2022-10-08T11:38:30.398Z,101161.75
2022-10-08T11:41:07.726Z,101152.88
2022-10-08T11:43:42.802Z,101160.25
2022-10-08T11:46:22.582Z,101162.66
2022-10-08T11:48:50.882Z,101168.19
2022-10-08T11:51:32.792Z,101170.69
2022-10-08T11:54:21.698Z,101166.34
2022-10-08T11:56:52.897Z,101170.69
2022-10-08T11:59:35.272Z,101167.63
2022-10-08T12:02:06.725Z,101165.28
2022-10-08T12:04:36.349Z,101172.88
2022-10-08T12:07:18.409Z,101179.88
2022-10-08T12:10:23.489Z,101165.38
2022-10-08T12:13:24.348Z,101160.97
2022-10-08T12:16:06.977Z,101173.84
2022-10-08T12:18:53.598Z,101169.91
2022-10-08T12:21:50.011Z,101175.03
2022-10-08T12:24:50.881Z,101173.00
2022-10-08T12:27:37.813Z,101173.91
2022-10-08T12:30:10.826Z,101165.94
2022-10-08T12:32:56.975Z,101162.78
2022-10-08T12:35:34.062Z,101165.38
2022-10-08T12:38:28.142Z,101163.72
2022-10-08T12:41:10.701Z,101165.94
2022-10-08T12:43:48.570Z,101171.13
2022-10-08T12:46:30.778Z,101168.44
2022-10-08T12:49:02.624Z,101165.13
2022-10-08T12:51:41.431Z,101172.91
2022-10-08T12:54:19.549Z,101171.78
2022-10-08T12:56:47.806Z,101161.78
2022-10-08T12:59:16.082Z,101163.44
2022-10-08T13:01:46.634Z,101159.75
2022-10-08T13:04:25.238Z,101157.72
2022-10-08T13:06:54.298Z,101154.44
2022-10-08T13:09:28.961Z,101148.97
2022-10-08T13:12:02.897Z,101157.03
2022-10-08T13:14:33.270Z,101156.31
2022-10-08T13:17:03.126Z,101159.25
2022-10-08T13:19:33.088Z,101153.97
2022-10-08T13:22:03.001Z,101154.09
2022-10-08T13:24:39.399Z,101146.28
2022-10-08T13:27:07.958Z,101153.59
2022-10-08T13:29:37.727Z,101148.59
2022-10-08T13:32:19.873Z,101154.06
2022-10-08T13:34:50.134Z,101160.53
2022-10-08T13:37:26.835Z,101156.81
2022-10-08T13:39:56.576Z,101158.41
2022-10-08T13:42:26.932Z,101166.94
2022-10-08T13:44:54.706Z,101165.53
2022-10-08T13:47:23.945Z,101160.72
2022-10-08T13:49:51.540Z,101158.94
2022-10-08T13:52:21.653Z,101161.88
2022-10-08T13:54:51.339Z,101160.59
2022-10-08T13:57:18.906Z,101156.16
2022-10-08T13:59:46.569Z,101163.94
2022-10-08T14:02:14.969Z,101156.47
2022-10-08T14:04:43.960Z,101160.53
2022-10-08T14:07:22.646Z,101156.66
2022-10-08T14:09:50.382Z,101147.22
2022-10-08T14:12:22.185Z,101161.50
2022-10-08T14:14:49.861Z,101157.41
2022-10-08T14:17:17.421Z,101153.69
2022-10-08T14:19:46.472Z,101162.31
2022-10-08T14:22:14.625Z,101161.59
2022-10-08T14:24:42.295Z,101161.28
2022-10-08T14:27:10.031Z,101155.19
2022-10-08T14:29:37.987Z,101158.16
2022-10-08T14:32:08.348Z,101147.75
2022-10-08T14:34:36.546Z,101155.19
2022-10-08T14:37:05.867Z,101149.44
2022-10-08T14:39:33.548Z,101150.38
2022-10-08T14:42:01.119Z,101157.88
2022-10-08T14:44:28.694Z,101155.38
2022-10-08T14:46:56.261Z,101155.19
2022-10-08T14:49:24.200Z,101156.38
2022-10-08T14:51:51.792Z,101145.19
2022-10-08T14:54:21.083Z,101149.72
2022-10-08T14:56:48.897Z,101150.75
2022-10-08T14:59:16.692Z,101154.81
2022-10-08T15:01:44.615Z,101156.03
2022-10-08T15:04:14.935Z,101156.22
2022-10-08T15:06:43.347Z,101147.84
2022-10-08T15:09:12.286Z,101148.91
2022-10-08T15:11:41.366Z,101146.28
2022-10-08T15:14:09.557Z,101149.91
2022-10-08T15:16:39.461Z,101140.72
2022-10-08T15:19:08.191Z,101147.47
2022-10-08T15:21:35.999Z,101146.81
2022-10-08T15:24:03.686Z,101142.81
2022-10-08T15:26:31.399Z,101148.19
2022-10-08T15:29:01.288Z,101150.59
2022-10-08T15:31:29.587Z,101148.28
2022-10-08T15:33:59.523Z,101145.31
2022-10-08T15:36:29.294Z,101142.31
2022-10-08T15:38:58.857Z,101147.03
2022-10-08T15:41:28.125Z,101148.59
2022-10-08T15:43:56.131Z,101149.78
2022-10-08T15:46:28.894Z,101149.16
2022-10-08T15:48:58.124Z,101158.56
2022-10-08T15:51:25.892Z,101157.25
2022-10-08T15:53:53.673Z,101163.00
2022-10-08T15:56:21.654Z,101159.00
2022-10-08T15:58:51.616Z,101159.16
2022-10-08T16:01:22.159Z,101166.59
2022-10-08T16:03:53.818Z,101162.41
2022-10-08T16:06:23.589Z,101169.78
2022-10-08T16:08:53.972Z,101168.50
2022-10-08T16:11:23.468Z,101172.19
2022-10-08T16:13:53.711Z,101167.53
2022-10-08T16:16:21.831Z,101177.69
2022-10-08T16:18:57.217Z,101183.72
2022-10-08T16:21:24.926Z,101188.13
2022-10-08T16:23:52.724Z,101180.78
2022-10-08T16:26:22.894Z,101187.50
2022-10-08T16:28:54.924Z,101188.19
2022-10-08T16:31:23.414Z,101188.19
2022-10-08T16:33:56.159Z,101190.59
2022-10-08T16:36:24.197Z,101194.59
2022-10-08T16:38:53.049Z,101201.09
2022-10-08T16:41:22.717Z,101206.03
2022-10-08T16:43:52.330Z,101201.34
2022-10-08T16:46:21.831Z,101214.63
2022-10-08T16:48:54.190Z,101212.13
2022-10-08T16:51:23.502Z,101222.56
2022-10-08T16:53:52.145Z,101228.25
2022-10-08T16:56:20.830Z,101232.44
2022-10-08T16:58:52.890Z,101233.63
2022-10-08T17:01:20.843Z,101233.78
2022-10-08T17:03:49.594Z,101231.28
2022-10-08T17:06:20.283Z,101238.00
2022-10-08T17:08:47.946Z,101244.03
2022-10-08T17:11:16.323Z,101252.91
2022-10-08T17:13:45.768Z,101253.91
2022-10-08T17:16:14.084Z,101264.09
2022-10-08T17:18:44.169Z,101269.47
2022-10-08T17:21:13.832Z,101269.81
2022-10-08T17:23:43.238Z,101272.47
2022-10-08T17:26:13.355Z,101282.34
2022-10-08T17:28:42.798Z,101282.88
2022-10-08T17:31:14.316Z,101291.91
2022-10-08T17:33:42.617Z,101297.91
2022-10-08T17:36:13.737Z,101296.56
2022-10-08T17:38:43.754Z,101292.19
2022-10-08T17:41:15.506Z,101305.25
2022-10-08T17:43:44.112Z,101311.47
2022-10-08T17:46:14.391Z,101307.25
2022-10-08T17:48:42.796Z,101310.94
2022-10-08T17:51:12.739Z,101310.94
2022-10-08T17:53:42.237Z,101321.63
2022-10-08T17:56:11.776Z,101318.63
2022-10-08T17:58:39.830Z,101318.41
2022-10-08T18:01:09.775Z,101318.59
2022-10-08T18:03:38.958Z,101325.25
2022-10-08T18:06:08.018Z,101325.56
2022-10-08T18:08:36.201Z,101331.91
2022-10-08T18:11:06.824Z,101333.94
2022-10-08T18:13:34.674Z,101334.94
2022-10-08T18:16:06.268Z,101339.59
2022-10-08T18:18:34.555Z,101340.09
2022-10-08T18:21:03.865Z,101343.25
2022-10-08T18:23:33.755Z,101357.97
2022-10-08T18:26:11.320Z,101350.56
2022-10-08T18:28:39.279Z,101361.59
2022-10-08T18:31:08.552Z,101360.06
2022-10-08T18:33:42.082Z,101365.56
2022-10-08T18:36:11.279Z,101362.72
2022-10-08T18:38:38.985Z,101365.34
2022-10-08T18:41:16.053Z,101374.13
2022-10-08T18:43:44.405Z,101380.41
2022-10-08T18:46:12.535Z,101377.06
2022-10-08T18:48:40.315Z,101387.09
2022-10-08T18:51:09.598Z,101396.00
2022-10-08T18:53:39.402Z,101393.19
2022-10-08T18:56:09.922Z,101405.84
2022-10-08T18:58:38.882Z,101412.34
2022-10-08T19:01:07.456Z,101410.53
2022-10-08T19:03:35.141Z,101413.72
2022-10-08T19:06:02.736Z,101418.53
2022-10-08T19:08:30.320Z,101411.84
2022-10-08T19:10:57.993Z,101427.19
2022-10-08T19:13:25.667Z,101426.91
2022-10-08T19:15:54.694Z,101422.53
2022-10-08T19:18:22.386Z,101428.38
2022-10-08T19:20:50.096Z,101432.13
2022-10-08T19:23:17.702Z,101430.06
2022-10-08T19:25:45.312Z,101433.91
2022-10-08T19:28:12.995Z,101434.75
2022-10-08T19:30:40.659Z,101440.09
2022-10-08T19:33:09.694Z,101435.19
2022-10-08T19:35:37.360Z,101443.38
2022-10-08T19:38:04.959Z,101443.72
2022-10-08T19:40:32.648Z,101443.28
2022-10-08T19:43:00.326Z,101450.31
2022-10-08T19:45:27.890Z,101447.28
2022-10-08T19:47:55.570Z,101452.25
2022-10-08T19:50:24.587Z,101461.25
2022-10-08T19:52:52.279Z,101464.41
2022-10-08T19:55:19.923Z,101461.19
2022-10-08T19:57:47.651Z,101468.84
2022-10-08T20:00:16.168Z,101471.13
2022-10-08T20:02:45.450Z,101474.28
2022-10-08T20:05:13.343Z,101476.25
2022-10-08T20:07:42.336Z,101476.72
2022-10-08T20:10:10.914Z,101476.88
2022-10-08T20:12:38.524Z,101483.34
2022-10-08T20:15:09.571Z,101483.97
2022-10-08T20:17:39.147Z,101479.75
2022-10-08T20:20:31.201Z,101483.97
2022-10-08T20:22:57.278Z,101482.56
2022-10-08T20:25:26.070Z,101492.59
2022-10-08T20:27:53.806Z,101486.56
2022-10-08T20:30:21.551Z,101487.47
2022-10-08T20:32:49.428Z,101496.75
2022-10-08T20:35:17.445Z,101497.44
2022-10-08T20:37:45.122Z,101496.47
2022-10-08T20:40:14.102Z,101494.50
2022-10-08T20:42:41.811Z,101501.53
2022-10-08T20:45:11.918Z,101502.47
2022-10-08T20:47:39.525Z,101505.97
2022-10-08T20:50:07.708Z,101506.13
2022-10-08T20:52:35.383Z,101504.59
2022-10-08T20:55:02.953Z,101514.00
2022-10-08T20:57:31.907Z,101510.63
2022-10-08T20:59:59.512Z,101516.66
2022-10-08T21:02:27.450Z,101518.16
2022-10-08T21:04:55.104Z,101520.84
2022-10-08T21:07:22.937Z,101521.59
2022-10-08T21:09:52.458Z,101523.03
2022-10-08T21:12:20.031Z,101522.91
2022-10-08T21:14:49.115Z,101526.56
2022-10-08T21:17:16.687Z,101525.84
2022-10-08T21:19:44.246Z,101524.72
2022-10-08T21:22:11.847Z,101522.25
2022-10-08T21:24:39.499Z,101532.66
2022-10-08T21:27:07.141Z,101518.59
2022-10-08T21:29:35.054Z,101522.25
2022-10-08T21:32:04.216Z,101523.03
2022-10-08T21:34:32.137Z,101530.06
2022-10-08T21:36:59.745Z,101530.22
2022-10-08T21:39:27.354Z,101525.03
2022-10-08T21:41:54.973Z,101524.91
2022-10-08T21:44:23.047Z,101524.91
2022-10-08T21:46:50.682Z,101526.44
2022-10-08T21:49:21.033Z,101528.28
2022-10-08T21:51:49.235Z,101535.28
2022-10-08T21:54:17.626Z,101528.88
2022-10-08T21:56:45.859Z,101527.19
2022-10-08T21:59:15.341Z,101538.25
2022-10-08T22:01:44.837Z,101531.53
2022-10-08T22:04:14.478Z,101523.56
2022-10-08T22:06:45.666Z,101527.19
2022-10-08T22:09:16.046Z,101537.97
2022-10-08T22:11:43.990Z,101533.03
2022-10-08T22:14:11.745Z,101534.91
2022-10-08T22:16:39.559Z,101532.78
2022-10-08T22:19:07.291Z,101537.16
2022-10-08T22:21:35.600Z,101539.44
2022-10-08T22:24:05.706Z,101540.81
2022-10-08T22:26:35.892Z,101531.44
2022-10-08T22:29:04.999Z,101535.06
2022-10-08T22:31:33.204Z,101533.84
2022-10-08T22:34:00.977Z,101527.53
2022-10-08T22:36:31.453Z,101536.78
2022-10-08T22:38:59.929Z,101525.41
2022-10-08T22:41:31.842Z,101527.81
2022-10-08T22:44:00.202Z,101523.59
2022-10-08T22:46:29.631Z,101525.84
2022-10-08T22:48:58.303Z,101524.31
2022-10-08T22:51:26.091Z,101526.13
2022-10-08T22:53:54.350Z,101525.53
2022-10-08T22:56:25.485Z,101528.66
2022-10-08T22:58:55.086Z,101528.78
2022-10-08T23:01:24.600Z,101519.81
2022-10-08T23:03:52.785Z,101528.38
2022-10-08T23:06:22.062Z,101531.59
2022-10-08T23:08:54.372Z,101524.88
2022-10-08T23:11:22.510Z,101531.75
2022-10-08T23:13:56.413Z,101527.41
2022-10-08T23:16:25.683Z,101527.81
2022-10-08T23:18:54.656Z,101520.25
2022-10-08T23:21:22.779Z,101523.59
2022-10-08T23:23:51.239Z,101524.44
2022-10-08T23:26:19.358Z,101522.19
2022-10-08T23:28:51.647Z,101520.53
2022-10-08T23:31:22.695Z,101516.13
2022-10-08T23:33:52.530Z,101517.69
2022-10-08T23:36:22.195Z,101518.53
2022-10-08T23:38:50.282Z,101514.59
2022-10-08T23:41:19.232Z,101505.63
2022-10-08T23:43:48.389Z,101508.97
2022-10-08T23:46:18.049Z,101507.00
2022-10-08T23:48:47.423Z,101511.22
2022-10-08T23:51:16.072Z,101508.41
2022-10-08T23:53:44.579Z,101516.09
2022-10-08T23:56:12.746Z,101503.06
2022-10-08T23:58:40.751Z,101510.31
